FIN1RC LGRP-EFHK
Flight info
| Callsign | FIN1RC |
|---|---|
| Flight time | 3h 41m |
| Altitude | 36000 |
| Route | VANES UM601 ADESO UN133 KOROS DCT ATFIR DCT LOMOS DCT KENIN DCT TOXAR DCT BOKSU DCT INBOV DCT GUNTA DCT SOKVA DCT ANAMA DCT KEMET DCT KEXLE DCT BEKNA DCT INTOR |
| Aircraft | A321/M-SDE3FGHIRWY/LB1 |
Departure
| Time | 2026-04-26 14:17 |
|---|---|
| Airport | Rhodes International Airport "Diagoras" (LGRP) |
Arrival
| Time | 2026-04-26 17:59 |
|---|---|
| Airport | Helsinki Vantaa Airport (EFHK) |
| Time | Latitude | Longitude | Altitude | Speed | Heading |
|---|---|---|---|---|---|
| 2026-04-26 13:32 | 36.40307 | 28.08920 | 28 ft | 0 kts | 160° |
| 2026-04-26 14:06 | 36.40310 | 28.08919 | 28 ft | 3 kts | 160° |
| 2026-04-26 14:07 | 36.40334 | 28.08907 | 28 ft | 4 kts | 160° |
| 2026-04-26 14:07 | 36.40360 | 28.08896 | 28 ft | 4 kts | 160° |
| 2026-04-26 14:07 | 36.40381 | 28.08887 | 28 ft | 4 kts | 154° |
| 2026-04-26 14:07 | 36.40398 | 28.08868 | 28 ft | 4 kts | 107° |
| 2026-04-26 14:08 | 36.40403 | 28.08836 | 28 ft | 4 kts | 94° |
| 2026-04-26 14:08 | 36.40403 | 28.08829 | 28 ft | 0 kts | 94° |
| 2026-04-26 14:10 | 36.40403 | 28.08830 | 28 ft | 1 kts | 94° |
| 2026-04-26 14:11 | 36.40399 | 28.08884 | 28 ft | 6 kts | 95° |
| 2026-04-26 14:11 | 36.40396 | 28.08941 | 28 ft | 7 kts | 89° |
| 2026-04-26 14:11 | 36.40403 | 28.09009 | 28 ft | 8 kts | 78° |
| 2026-04-26 14:12 | 36.40422 | 28.09083 | 28 ft | 10 kts | 70° |
| 2026-04-26 14:12 | 36.40447 | 28.09167 | 28 ft | 11 kts | 70° |
| 2026-04-26 14:12 | 36.40474 | 28.09258 | 28 ft | 12 kts | 70° |
| 2026-04-26 14:12 | 36.40512 | 28.09350 | 28 ft | 13 kts | 47° |
| 2026-04-26 14:13 | 36.40622 | 28.09531 | 28 ft | 14 kts | 69° |
| 2026-04-26 14:13 | 36.40657 | 28.09652 | 28 ft | 15 kts | 70° |
| 2026-04-26 14:13 | 36.40694 | 28.09779 | 28 ft | 16 kts | 70° |
| 2026-04-26 14:14 | 36.40735 | 28.09918 | 28 ft | 17 kts | 70° |
| 2026-04-26 14:14 | 36.40777 | 28.10062 | 28 ft | 18 kts | 70° |
| 2026-04-26 14:14 | 36.40822 | 28.10213 | 28 ft | 19 kts | 70° |
| 2026-04-26 14:14 | 36.40866 | 28.10364 | 28 ft | 14 kts | 70° |
| 2026-04-26 14:15 | 36.40897 | 28.10431 | 28 ft | 7 kts | 34° |
| 2026-04-26 14:15 | 36.40949 | 28.10428 | 28 ft | 8 kts | 340° |
| 2026-04-26 14:15 | 36.40994 | 28.10373 | 27 ft | 10 kts | 301° |
| 2026-04-26 14:15 | 36.41027 | 28.10303 | 28 ft | 6 kts | 287° |
| 2026-04-26 14:16 | 36.41017 | 28.10249 | 28 ft | 6 kts | 250° |
| 2026-04-26 14:16 | 36.41015 | 28.10241 | 28 ft | 0 kts | 250° |
| 2026-04-26 14:16 | 36.41006 | 28.10213 | 28 ft | 23 kts | 250° |
| 2026-04-26 14:16 | 36.40864 | 28.09725 | 28 ft | 95 kts | 250° |
| 2026-04-26 14:17 | 36.40565 | 28.08706 | 29 ft | 153 kts | 250° |
| 2026-04-26 14:17 | 36.40159 | 28.07310 | 255 ft | 178 kts | 252° |
| 2026-04-26 14:17 | 36.39907 | 28.05833 | 978 ft | 176 kts | 264° |
| 2026-04-26 14:17 | 36.39805 | 28.04286 | 1490 ft | 187 kts | 265° |
| 2026-04-26 14:18 | 36.39703 | 28.02593 | 1747 ft | 207 kts | 265° |
| 2026-04-26 14:18 | 36.39571 | 28.00715 | 1919 ft | 230 kts | 264° |
| 2026-04-26 14:18 | 36.39411 | 27.98635 | 2146 ft | 255 kts | 264° |
| 2026-04-26 14:18 | 36.39229 | 27.96391 | 2724 ft | 265 kts | 264° |
| 2026-04-26 14:19 | 36.39040 | 27.94099 | 3456 ft | 270 kts | 264° |
| 2026-04-26 14:19 | 36.38846 | 27.91773 | 4225 ft | 272 kts | 265° |
| 2026-04-26 14:19 | 36.38649 | 27.89427 | 5014 ft | 275 kts | 265° |
| 2026-04-26 14:19 | 36.38450 | 27.87055 | 5761 ft | 278 kts | 265° |
| 2026-04-26 14:20 | 36.38367 | 27.84646 | 6475 ft | 281 kts | 272° |
| 2026-04-26 14:20 | 36.38398 | 27.82208 | 7164 ft | 285 kts | 272° |
| 2026-04-26 14:20 | 36.38427 | 27.79732 | 7854 ft | 289 kts | 272° |
| 2026-04-26 14:20 | 36.38459 | 27.77219 | 8539 ft | 293 kts | 272° |
| 2026-04-26 14:21 | 36.38490 | 27.74666 | 9216 ft | 298 kts | 272° |
| 2026-04-26 14:21 | 36.38635 | 27.72084 | 9870 ft | 302 kts | 280° |
| 2026-04-26 14:21 | 36.38969 | 27.69458 | 10259 ft | 318 kts | 280° |
| 2026-04-26 14:21 | 36.39328 | 27.66655 | 10404 ft | 341 kts | 280° |
| 2026-04-26 14:22 | 36.39712 | 27.63656 | 10531 ft | 362 kts | 280° |
| 2026-04-26 14:22 | 36.40112 | 27.60483 | 10719 ft | 380 kts | 280° |
| 2026-04-26 14:22 | 36.40512 | 27.57270 | 11219 ft | 387 kts | 280° |
| 2026-04-26 14:22 | 36.40930 | 27.53896 | 11851 ft | 390 kts | 280° |
| 2026-04-26 14:23 | 36.41341 | 27.50549 | 12495 ft | 394 kts | 280° |
| 2026-04-26 14:23 | 36.41759 | 27.47175 | 13134 ft | 397 kts | 281° |
| 2026-04-26 14:23 | 36.42181 | 27.43774 | 13770 ft | 400 kts | 281° |
| 2026-04-26 14:23 | 36.42608 | 27.40346 | 14354 ft | 403 kts | 281° |
| 2026-04-26 14:24 | 36.43037 | 27.36894 | 14956 ft | 406 kts | 281° |
| 2026-04-26 14:24 | 36.43468 | 27.33416 | 15566 ft | 409 kts | 281° |
| 2026-04-26 14:24 | 36.43900 | 27.29914 | 16163 ft | 411 kts | 281° |
| 2026-04-26 14:24 | 36.44332 | 27.26390 | 16759 ft | 414 kts | 281° |
| 2026-04-26 14:25 | 36.44765 | 27.22846 | 17336 ft | 418 kts | 281° |
| 2026-04-26 14:25 | 36.45201 | 27.19263 | 17913 ft | 421 kts | 281° |
| 2026-04-26 14:25 | 36.45638 | 27.15652 | 18450 ft | 424 kts | 281° |
| 2026-04-26 14:25 | 36.46075 | 27.12026 | 18907 ft | 426 kts | 281° |
| 2026-04-26 14:26 | 36.46518 | 27.08372 | 19369 ft | 429 kts | 281° |
| 2026-04-26 14:26 | 36.46965 | 27.04694 | 19818 ft | 432 kts | 282° |
| 2026-04-26 14:26 | 36.47416 | 27.00994 | 20270 ft | 435 kts | 282° |
| 2026-04-26 14:26 | 36.47873 | 26.97272 | 20709 ft | 438 kts | 282° |
| 2026-04-26 14:27 | 36.48332 | 26.93519 | 21148 ft | 441 kts | 282° |
| 2026-04-26 14:27 | 36.48792 | 26.89741 | 21576 ft | 444 kts | 282° |
| 2026-04-26 14:27 | 36.49251 | 26.85933 | 22003 ft | 446 kts | 282° |
| 2026-04-26 14:27 | 36.49707 | 26.82108 | 22414 ft | 449 kts | 282° |
| 2026-04-26 14:28 | 36.50161 | 26.78254 | 22823 ft | 452 kts | 282° |
| 2026-04-26 14:28 | 36.50615 | 26.74375 | 23225 ft | 455 kts | 282° |
| 2026-04-26 14:28 | 36.51073 | 26.70475 | 23607 ft | 458 kts | 282° |
| 2026-04-26 14:28 | 36.51534 | 26.66550 | 23954 ft | 460 kts | 282° |
| 2026-04-26 14:29 | 36.52001 | 26.62602 | 24284 ft | 462 kts | 283° |
| 2026-04-26 14:29 | 36.52735 | 26.58734 | 24630 ft | 458 kts | 293° |
| 2026-04-26 14:29 | 36.54013 | 26.55135 | 24958 ft | 454 kts | 304° |
| 2026-04-26 14:29 | 36.55790 | 26.51917 | 25272 ft | 449 kts | 314° |
| 2026-04-26 14:30 | 36.57205 | 26.50052 | 25499 ft | 447 kts | 321° |
| 2026-04-26 14:30 | 36.59637 | 26.47683 | 25831 ft | 443 kts | 331° |
| 2026-04-26 14:30 | 36.62374 | 26.45852 | 26167 ft | 441 kts | 338° |
| 2026-04-26 14:30 | 36.66065 | 26.43698 | 26614 ft | 444 kts | 338° |
| 2026-04-26 14:31 | 36.67916 | 26.42612 | 26830 ft | 445 kts | 338° |
| 2026-04-26 14:31 | 36.70724 | 26.40965 | 27156 ft | 446 kts | 338° |
| 2026-04-26 14:31 | 36.73530 | 26.39315 | 27594 ft | 445 kts | 338° |
| 2026-04-26 14:31 | 36.76322 | 26.37673 | 28063 ft | 443 kts | 338° |
| 2026-04-26 14:32 | 36.79104 | 26.36036 | 28522 ft | 441 kts | 338° |
| 2026-04-26 14:32 | 36.81876 | 26.34407 | 28978 ft | 440 kts | 338° |
| 2026-04-26 14:32 | 36.84641 | 26.32777 | 29431 ft | 438 kts | 338° |
| 2026-04-26 14:32 | 36.87392 | 26.31154 | 29885 ft | 437 kts | 338° |
| 2026-04-26 14:33 | 36.90174 | 26.29509 | 30295 ft | 436 kts | 338° |
| 2026-04-26 14:33 | 36.92876 | 26.27915 | 30660 ft | 434 kts | 338° |
| 2026-04-26 14:33 | 36.95640 | 26.26280 | 31031 ft | 433 kts | 338° |
| 2026-04-26 14:33 | 36.98323 | 26.24690 | 31385 ft | 432 kts | 338° |
| 2026-04-26 14:34 | 37.01029 | 26.23070 | 31732 ft | 431 kts | 337° |
| 2026-04-26 14:34 | 37.03723 | 26.21429 | 32105 ft | 430 kts | 337° |
| 2026-04-26 14:34 | 37.06410 | 26.19779 | 32450 ft | 429 kts | 337° |
| 2026-04-26 14:34 | 37.09120 | 26.18111 | 32806 ft | 428 kts | 337° |
| 2026-04-26 14:35 | 37.11756 | 26.16495 | 33148 ft | 427 kts | 337° |
| 2026-04-26 14:35 | 37.14422 | 26.14866 | 33488 ft | 426 kts | 337° |
| 2026-04-26 14:35 | 37.17084 | 26.13243 | 33824 ft | 425 kts | 337° |
| 2026-04-26 14:35 | 37.19746 | 26.11616 | 34140 ft | 424 kts | 336° |
| 2026-04-26 14:36 | 37.22397 | 26.09995 | 34410 ft | 424 kts | 336° |
| 2026-04-26 14:36 | 37.25051 | 26.08373 | 34661 ft | 424 kts | 336° |
| 2026-04-26 14:36 | 37.27700 | 26.06750 | 34910 ft | 424 kts | 336° |
| 2026-04-26 14:36 | 37.30345 | 26.05126 | 35165 ft | 424 kts | 336° |
| 2026-04-26 14:37 | 37.32994 | 26.03497 | 35420 ft | 423 kts | 336° |
| 2026-04-26 14:37 | 37.35639 | 26.01867 | 35665 ft | 423 kts | 335° |
| 2026-04-26 14:37 | 37.38316 | 26.00215 | 35904 ft | 424 kts | 335° |
| 2026-04-26 14:38 | 37.43621 | 25.96944 | 36015 ft | 425 kts | 335° |
| 2026-04-26 14:38 | 37.48923 | 25.93670 | 36005 ft | 425 kts | 335° |
| 2026-04-26 14:39 | 37.54221 | 25.90387 | 36012 ft | 425 kts | 335° |
| 2026-04-26 14:39 | 37.59526 | 25.87102 | 36011 ft | 424 kts | 335° |
| 2026-04-26 14:40 | 37.64791 | 25.83834 | 36012 ft | 425 kts | 335° |
| 2026-04-26 14:40 | 37.70071 | 25.80554 | 36016 ft | 425 kts | 335° |
| 2026-04-26 14:41 | 37.75429 | 25.77220 | 36022 ft | 425 kts | 335° |
| 2026-04-26 14:41 | 37.80734 | 25.73909 | 36021 ft | 425 kts | 335° |
| 2026-04-26 14:42 | 37.86038 | 25.70598 | 36025 ft | 425 kts | 335° |
| 2026-04-26 14:42 | 37.91344 | 25.67285 | 36027 ft | 425 kts | 335° |
| 2026-04-26 14:43 | 37.96617 | 25.63971 | 36028 ft | 426 kts | 334° |
| 2026-04-26 14:43 | 38.01924 | 25.60631 | 35992 ft | 427 kts | 334° |
| 2026-04-26 14:44 | 38.07276 | 25.57271 | 35993 ft | 431 kts | 334° |
| 2026-04-26 14:44 | 38.12668 | 25.53878 | 35993 ft | 434 kts | 334° |
| 2026-04-26 14:45 | 38.18090 | 25.50467 | 36012 ft | 436 kts | 334° |
| 2026-04-26 14:45 | 38.23525 | 25.47037 | 36025 ft | 437 kts | 334° |
| 2026-04-26 14:46 | 38.28972 | 25.43586 | 36035 ft | 438 kts | 334° |
| 2026-04-26 14:46 | 38.34459 | 25.40102 | 36042 ft | 438 kts | 334° |
| 2026-04-26 14:47 | 38.39874 | 25.36661 | 36051 ft | 438 kts | 334° |
| 2026-04-26 14:47 | 38.45366 | 25.33167 | 36049 ft | 438 kts | 334° |
| 2026-04-26 14:48 | 38.50817 | 25.29693 | 36047 ft | 438 kts | 334° |
| 2026-04-26 14:48 | 38.56229 | 25.26240 | 36055 ft | 438 kts | 334° |
| 2026-04-26 14:49 | 38.61672 | 25.22761 | 36049 ft | 437 kts | 333° |
| 2026-04-26 14:49 | 38.67110 | 25.19270 | 36050 ft | 437 kts | 333° |
| 2026-04-26 14:50 | 38.72553 | 25.15778 | 36049 ft | 437 kts | 333° |
| 2026-04-26 14:50 | 38.77994 | 25.12289 | 36052 ft | 437 kts | 333° |
| 2026-04-26 14:51 | 38.83402 | 25.08801 | 36053 ft | 437 kts | 333° |
| 2026-04-26 14:51 | 38.88854 | 25.05282 | 36052 ft | 437 kts | 333° |
| 2026-04-26 14:52 | 38.94277 | 25.01781 | 36054 ft | 436 kts | 333° |
| 2026-04-26 14:52 | 38.99700 | 24.98271 | 36052 ft | 436 kts | 333° |
| 2026-04-26 14:53 | 39.05121 | 24.94754 | 36053 ft | 436 kts | 333° |
| 2026-04-26 14:53 | 39.10567 | 24.91318 | 36047 ft | 436 kts | 338° |
| 2026-04-26 14:54 | 39.16257 | 24.88594 | 36051 ft | 436 kts | 338° |
| 2026-04-26 14:54 | 39.21954 | 24.85868 | 36050 ft | 437 kts | 338° |
| 2026-04-26 14:55 | 39.27646 | 24.83133 | 36053 ft | 436 kts | 338° |
| 2026-04-26 14:55 | 39.33361 | 24.80380 | 36053 ft | 436 kts | 338° |
| 2026-04-26 14:56 | 39.39064 | 24.77631 | 36051 ft | 437 kts | 338° |
| 2026-04-26 14:56 | 39.44753 | 24.74879 | 36053 ft | 437 kts | 338° |
| 2026-04-26 14:57 | 39.50444 | 24.72123 | 36053 ft | 437 kts | 338° |
| 2026-04-26 14:57 | 39.56139 | 24.69369 | 36047 ft | 437 kts | 338° |
| 2026-04-26 14:58 | 39.61840 | 24.66607 | 36051 ft | 437 kts | 338° |
| 2026-04-26 14:58 | 39.67535 | 24.63840 | 36053 ft | 437 kts | 337° |
| 2026-04-26 14:59 | 39.73228 | 24.61064 | 36049 ft | 437 kts | 337° |
| 2026-04-26 14:59 | 39.78928 | 24.58286 | 36047 ft | 437 kts | 337° |
| 2026-04-26 15:00 | 39.84615 | 24.55503 | 36046 ft | 437 kts | 337° |
| 2026-04-26 15:00 | 39.90309 | 24.52709 | 36044 ft | 437 kts | 337° |
| 2026-04-26 15:01 | 39.95996 | 24.49924 | 36042 ft | 437 kts | 337° |
| 2026-04-26 15:01 | 40.01690 | 24.47125 | 36042 ft | 437 kts | 337° |
| 2026-04-26 15:02 | 40.07381 | 24.44320 | 36036 ft | 437 kts | 337° |
| 2026-04-26 15:02 | 40.13075 | 24.41519 | 36037 ft | 437 kts | 337° |
| 2026-04-26 15:03 | 40.18770 | 24.38718 | 36031 ft | 437 kts | 336° |
| 2026-04-26 15:03 | 40.24393 | 24.35932 | 36027 ft | 437 kts | 336° |
| 2026-04-26 15:04 | 40.30142 | 24.33069 | 36029 ft | 437 kts | 336° |
| 2026-04-26 15:04 | 40.35836 | 24.30239 | 36032 ft | 438 kts | 336° |
| 2026-04-26 15:05 | 40.41527 | 24.27413 | 36024 ft | 438 kts | 336° |
| 2026-04-26 15:05 | 40.47225 | 24.24581 | 36023 ft | 438 kts | 336° |
| 2026-04-26 15:06 | 40.52916 | 24.21737 | 36020 ft | 438 kts | 336° |
| 2026-04-26 15:06 | 40.58605 | 24.18885 | 36019 ft | 437 kts | 336° |
| 2026-04-26 15:07 | 40.67130 | 24.14601 | 36012 ft | 437 kts | 336° |
| 2026-04-26 15:07 | 40.72810 | 24.11748 | 36006 ft | 437 kts | 336° |
| 2026-04-26 15:08 | 40.78498 | 24.08889 | 36006 ft | 437 kts | 336° |
| 2026-04-26 15:08 | 40.83258 | 24.06491 | 36002 ft | 437 kts | 336° |
| 2026-04-26 15:09 | 40.89858 | 24.03153 | 36003 ft | 437 kts | 336° |
| 2026-04-26 15:09 | 40.94613 | 24.00743 | 35997 ft | 437 kts | 336° |
| 2026-04-26 15:10 | 40.99332 | 23.98349 | 35983 ft | 437 kts | 336° |
| 2026-04-26 15:10 | 41.05955 | 23.94983 | 35994 ft | 436 kts | 336° |
| 2026-04-26 15:11 | 41.11617 | 23.92102 | 35980 ft | 436 kts | 336° |
| 2026-04-26 15:11 | 41.17274 | 23.89215 | 35986 ft | 436 kts | 336° |
| 2026-04-26 15:12 | 41.22937 | 23.86322 | 35987 ft | 436 kts | 336° |
| 2026-04-26 15:12 | 41.28574 | 23.83433 | 35986 ft | 436 kts | 336° |
| 2026-04-26 15:13 | 41.34237 | 23.80526 | 35995 ft | 436 kts | 336° |
| 2026-04-26 15:13 | 41.39924 | 23.77717 | 35998 ft | 438 kts | 341° |
| 2026-04-26 15:14 | 41.45965 | 23.76295 | 36003 ft | 442 kts | 347° |
| 2026-04-26 15:14 | 41.52046 | 23.75033 | 36002 ft | 441 kts | 347° |
| 2026-04-26 15:15 | 41.58115 | 23.73758 | 36004 ft | 442 kts | 347° |
| 2026-04-26 15:15 | 41.64196 | 23.72487 | 36008 ft | 442 kts | 347° |
| 2026-04-26 15:16 | 41.70281 | 23.71212 | 36015 ft | 443 kts | 347° |
| 2026-04-26 15:16 | 41.76366 | 23.69930 | 36024 ft | 443 kts | 347° |
| 2026-04-26 15:17 | 41.81420 | 23.68871 | 36032 ft | 443 kts | 348° |
| 2026-04-26 15:17 | 41.88536 | 23.67379 | 36036 ft | 443 kts | 348° |
| 2026-04-26 15:18 | 41.94617 | 23.66095 | 36042 ft | 443 kts | 348° |
| 2026-04-26 15:18 | 42.00710 | 23.64798 | 36047 ft | 443 kts | 348° |
| 2026-04-26 15:19 | 42.06806 | 23.63513 | 36051 ft | 444 kts | 348° |
| 2026-04-26 15:19 | 42.12902 | 23.62225 | 36053 ft | 443 kts | 348° |
| 2026-04-26 15:20 | 42.18987 | 23.60942 | 36057 ft | 443 kts | 348° |
| 2026-04-26 15:20 | 42.25083 | 23.59644 | 36062 ft | 443 kts | 348° |
| 2026-04-26 15:21 | 42.31171 | 23.58344 | 36062 ft | 443 kts | 348° |
| 2026-04-26 15:21 | 42.37253 | 23.57036 | 36061 ft | 442 kts | 348° |
| 2026-04-26 15:22 | 42.43336 | 23.55726 | 36060 ft | 442 kts | 348° |
| 2026-04-26 15:22 | 42.49416 | 23.54430 | 36056 ft | 442 kts | 348° |
| 2026-04-26 15:23 | 42.55495 | 23.53130 | 36055 ft | 442 kts | 348° |
| 2026-04-26 15:23 | 42.61570 | 23.51822 | 36056 ft | 442 kts | 348° |
| 2026-04-26 15:24 | 42.67647 | 23.50500 | 36053 ft | 442 kts | 348° |
| 2026-04-26 15:24 | 42.73690 | 23.49187 | 36052 ft | 443 kts | 349° |
| 2026-04-26 15:25 | 42.78788 | 23.48086 | 36049 ft | 443 kts | 349° |
| 2026-04-26 15:25 | 42.85910 | 23.46544 | 36050 ft | 444 kts | 349° |
| 2026-04-26 15:26 | 42.91973 | 23.45229 | 36046 ft | 444 kts | 349° |
| 2026-04-26 15:26 | 42.98087 | 23.43895 | 36050 ft | 445 kts | 349° |
| 2026-04-26 15:27 | 43.04203 | 23.42553 | 36051 ft | 445 kts | 349° |
| 2026-04-26 15:27 | 43.10327 | 23.41215 | 36053 ft | 445 kts | 349° |
| 2026-04-26 15:28 | 43.16442 | 23.39871 | 36050 ft | 446 kts | 349° |
| 2026-04-26 15:28 | 43.22566 | 23.38533 | 36054 ft | 445 kts | 349° |
| 2026-04-26 15:29 | 43.28680 | 23.37178 | 36048 ft | 445 kts | 349° |
| 2026-04-26 15:30 | 43.40904 | 23.34475 | 36037 ft | 445 kts | 349° |
| 2026-04-26 15:30 | 43.47021 | 23.33123 | 36035 ft | 445 kts | 349° |
| 2026-04-26 15:31 | 43.56191 | 23.31086 | 36037 ft | 445 kts | 349° |
| 2026-04-26 15:32 | 43.64374 | 23.29262 | 36036 ft | 445 kts | 348° |
| 2026-04-26 15:32 | 43.71478 | 23.27683 | 36036 ft | 445 kts | 348° |
| 2026-04-26 15:33 | 43.77583 | 23.26315 | 36035 ft | 445 kts | 348° |
| 2026-04-26 15:33 | 43.83693 | 23.24940 | 36030 ft | 445 kts | 348° |
| 2026-04-26 15:34 | 43.89771 | 23.23389 | 36028 ft | 444 kts | 347° |
| 2026-04-26 15:34 | 43.95826 | 23.21692 | 36030 ft | 444 kts | 346° |
| 2026-04-26 15:35 | 44.01876 | 23.20010 | 36032 ft | 444 kts | 347° |
| 2026-04-26 15:35 | 44.07936 | 23.18368 | 36028 ft | 444 kts | 347° |
| 2026-04-26 15:36 | 44.13999 | 23.16738 | 36028 ft | 444 kts | 347° |
| 2026-04-26 15:36 | 44.20059 | 23.15092 | 36029 ft | 444 kts | 346° |
| 2026-04-26 15:37 | 44.26120 | 23.13435 | 36029 ft | 444 kts | 346° |
| 2026-04-26 15:37 | 44.32179 | 23.11779 | 36030 ft | 444 kts | 346° |
| 2026-04-26 15:38 | 44.38234 | 23.10123 | 36028 ft | 443 kts | 346° |
| 2026-04-26 15:38 | 44.44288 | 23.08462 | 36030 ft | 443 kts | 346° |
| 2026-04-26 15:39 | 44.50343 | 23.06787 | 36030 ft | 444 kts | 346° |
| 2026-04-26 15:39 | 44.55417 | 23.05383 | 36029 ft | 443 kts | 346° |
| 2026-04-26 15:40 | 44.62454 | 23.03445 | 36028 ft | 443 kts | 346° |
| 2026-04-26 15:40 | 44.68506 | 23.01779 | 36027 ft | 443 kts | 346° |
| 2026-04-26 15:41 | 44.74563 | 23.00109 | 36031 ft | 443 kts | 346° |
| 2026-04-26 15:41 | 44.80617 | 22.98431 | 36033 ft | 443 kts | 346° |
| 2026-04-26 15:42 | 44.86665 | 22.96741 | 36036 ft | 443 kts | 346° |
| 2026-04-26 15:42 | 44.92705 | 22.95051 | 36039 ft | 442 kts | 346° |
| 2026-04-26 15:43 | 44.98724 | 22.93361 | 36046 ft | 440 kts | 346° |
| 2026-04-26 15:44 | 45.07712 | 22.90846 | 36046 ft | 438 kts | 346° |
| 2026-04-26 15:44 | 45.16650 | 22.88325 | 36053 ft | 436 kts | 346° |
| 2026-04-26 15:45 | 45.25567 | 22.85812 | 36056 ft | 435 kts | 346° |
| 2026-04-26 15:46 | 45.34477 | 22.83300 | 36053 ft | 436 kts | 346° |
| 2026-04-26 15:46 | 45.38454 | 22.82166 | 36052 ft | 437 kts | 346° |
| 2026-04-26 15:47 | 45.49400 | 22.79060 | 36057 ft | 439 kts | 345° |
| 2026-04-26 15:48 | 45.55400 | 22.77341 | 36069 ft | 440 kts | 345° |
| 2026-04-26 15:48 | 45.61413 | 22.75613 | 36080 ft | 441 kts | 345° |
| 2026-04-26 15:49 | 45.67428 | 22.73890 | 36090 ft | 441 kts | 345° |
| 2026-04-26 15:49 | 45.72474 | 22.72445 | 36097 ft | 441 kts | 345° |
| 2026-04-26 15:50 | 45.78489 | 22.70717 | 36100 ft | 441 kts | 345° |
| 2026-04-26 15:50 | 45.84505 | 22.68987 | 36104 ft | 441 kts | 345° |
| 2026-04-26 15:51 | 45.90513 | 22.67245 | 36106 ft | 440 kts | 345° |
| 2026-04-26 15:51 | 45.96518 | 22.65502 | 36112 ft | 441 kts | 345° |
| 2026-04-26 15:52 | 46.02524 | 22.63757 | 36078 ft | 439 kts | 345° |
| 2026-04-26 15:52 | 46.08514 | 22.62021 | 36087 ft | 438 kts | 345° |
| 2026-04-26 15:53 | 46.14489 | 22.60273 | 36093 ft | 438 kts | 345° |
| 2026-04-26 15:53 | 46.20458 | 22.58525 | 36101 ft | 437 kts | 345° |
| 2026-04-26 15:54 | 46.26414 | 22.56779 | 36090 ft | 437 kts | 345° |
| 2026-04-26 15:54 | 46.32366 | 22.55034 | 36107 ft | 437 kts | 344° |
| 2026-04-26 15:55 | 46.38321 | 22.53281 | 36125 ft | 437 kts | 344° |
| 2026-04-26 15:55 | 46.44285 | 22.51527 | 36140 ft | 437 kts | 344° |
| 2026-04-26 15:56 | 46.50247 | 22.49771 | 36141 ft | 437 kts | 344° |
| 2026-04-26 15:56 | 46.56206 | 22.48004 | 36140 ft | 437 kts | 344° |
| 2026-04-26 15:57 | 46.62162 | 22.46231 | 36147 ft | 437 kts | 344° |
| 2026-04-26 15:57 | 46.68115 | 22.44449 | 36158 ft | 437 kts | 344° |
| 2026-04-26 15:58 | 46.74061 | 22.42684 | 36164 ft | 436 kts | 343° |
| 2026-04-26 15:58 | 46.80009 | 22.40918 | 36169 ft | 436 kts | 343° |
| 2026-04-26 15:59 | 46.85943 | 22.39138 | 36170 ft | 435 kts | 343° |
| 2026-04-26 15:59 | 46.91865 | 22.37349 | 36180 ft | 434 kts | 343° |
| 2026-04-26 16:00 | 46.97780 | 22.35562 | 36180 ft | 434 kts | 343° |
| 2026-04-26 16:00 | 47.03689 | 22.33790 | 36180 ft | 433 kts | 343° |
| 2026-04-26 16:01 | 47.09589 | 22.32006 | 36183 ft | 432 kts | 343° |
| 2026-04-26 16:01 | 47.15480 | 22.30217 | 36185 ft | 432 kts | 343° |
| 2026-04-26 16:02 | 47.21360 | 22.28439 | 36185 ft | 431 kts | 343° |
| 2026-04-26 16:02 | 47.27242 | 22.26656 | 36183 ft | 431 kts | 343° |
| 2026-04-26 16:03 | 47.33102 | 22.24868 | 36186 ft | 430 kts | 343° |
| 2026-04-26 16:03 | 47.38958 | 22.23069 | 36184 ft | 429 kts | 343° |
| 2026-04-26 16:04 | 47.44805 | 22.21270 | 36190 ft | 428 kts | 343° |
| 2026-04-26 16:04 | 47.50630 | 22.19480 | 36197 ft | 427 kts | 343° |
| 2026-04-26 16:05 | 47.56450 | 22.17695 | 36195 ft | 427 kts | 343° |
| 2026-04-26 16:05 | 47.62248 | 22.15907 | 36196 ft | 425 kts | 343° |
| 2026-04-26 16:06 | 47.68033 | 22.14097 | 36196 ft | 424 kts | 343° |
| 2026-04-26 16:06 | 47.73809 | 22.12297 | 36194 ft | 423 kts | 343° |
| 2026-04-26 16:07 | 47.79574 | 22.10532 | 36196 ft | 423 kts | 343° |
| 2026-04-26 16:07 | 47.85327 | 22.08760 | 36185 ft | 422 kts | 343° |
| 2026-04-26 16:08 | 47.91069 | 22.06975 | 36193 ft | 421 kts | 343° |
| 2026-04-26 16:08 | 47.96805 | 22.05173 | 36198 ft | 421 kts | 342° |
| 2026-04-26 16:09 | 48.02535 | 22.03367 | 36193 ft | 421 kts | 342° |
| 2026-04-26 16:09 | 48.08263 | 22.01568 | 36197 ft | 421 kts | 342° |
| 2026-04-26 16:10 | 48.13994 | 21.99764 | 36196 ft | 421 kts | 342° |
| 2026-04-26 16:10 | 48.19717 | 21.97958 | 36199 ft | 420 kts | 342° |
| 2026-04-26 16:11 | 48.25441 | 21.96147 | 36197 ft | 420 kts | 342° |
| 2026-04-26 16:11 | 48.31157 | 21.94333 | 36197 ft | 420 kts | 342° |
| 2026-04-26 16:12 | 48.36948 | 21.92970 | 36199 ft | 428 kts | 352° |
| 2026-04-26 16:12 | 48.45940 | 21.93992 | 36204 ft | 436 kts | 1° |
| 2026-04-26 16:13 | 48.51938 | 21.95306 | 36206 ft | 435 kts | 1° |
| 2026-04-26 16:13 | 48.57931 | 21.96476 | 36209 ft | 433 kts | 359° |
| 2026-04-26 16:14 | 48.63918 | 21.97469 | 36205 ft | 432 kts | 359° |
| 2026-04-26 16:15 | 48.72882 | 21.98928 | 36209 ft | 432 kts | 359° |
| 2026-04-26 16:15 | 48.78846 | 21.99951 | 36205 ft | 431 kts | 359° |
| 2026-04-26 16:16 | 48.87783 | 22.01477 | 36205 ft | 431 kts | 359° |
| 2026-04-26 16:16 | 48.93746 | 22.02498 | 36209 ft | 431 kts | 359° |
| 2026-04-26 16:17 | 48.99703 | 22.03517 | 36208 ft | 431 kts | 358° |
| 2026-04-26 16:17 | 49.05667 | 22.04529 | 36205 ft | 431 kts | 358° |
| 2026-04-26 16:18 | 49.14601 | 22.06066 | 36797 ft | 429 kts | 359° |
| 2026-04-26 16:19 | 49.20537 | 22.07103 | 37171 ft | 430 kts | 359° |
| 2026-04-26 16:19 | 49.23508 | 22.07623 | 37177 ft | 430 kts | 359° |
| 2026-04-26 16:20 | 49.32434 | 22.09177 | 37181 ft | 430 kts | 359° |
| 2026-04-26 16:20 | 49.41361 | 22.10721 | 37181 ft | 431 kts | 359° |
| 2026-04-26 16:21 | 49.47320 | 22.11760 | 37191 ft | 431 kts | 359° |
| 2026-04-26 16:21 | 49.53288 | 22.12812 | 37204 ft | 432 kts | 359° |
| 2026-04-26 16:22 | 49.59256 | 22.13863 | 37213 ft | 432 kts | 359° |
| 2026-04-26 16:22 | 49.65230 | 22.14911 | 37220 ft | 432 kts | 359° |
| 2026-04-26 16:23 | 49.71195 | 22.15956 | 37217 ft | 431 kts | 359° |
| 2026-04-26 16:23 | 49.77155 | 22.17011 | 37217 ft | 431 kts | 359° |
| 2026-04-26 16:24 | 49.83102 | 22.18080 | 37221 ft | 430 kts | 359° |
| 2026-04-26 16:24 | 49.89053 | 22.19137 | 37220 ft | 430 kts | 359° |
| 2026-04-26 16:25 | 49.94995 | 22.20187 | 37222 ft | 430 kts | 359° |
| 2026-04-26 16:25 | 50.00933 | 22.21250 | 37225 ft | 430 kts | 359° |
| 2026-04-26 16:26 | 50.05864 | 22.22137 | 37227 ft | 429 kts | 359° |
| 2026-04-26 16:26 | 50.12803 | 22.23384 | 37225 ft | 429 kts | 359° |
| 2026-04-26 16:27 | 50.18715 | 22.24452 | 37221 ft | 429 kts | 359° |
| 2026-04-26 16:27 | 50.24674 | 22.25522 | 37215 ft | 429 kts | 359° |
| 2026-04-26 16:28 | 50.29608 | 22.26407 | 37213 ft | 429 kts | 359° |
| 2026-04-26 16:28 | 50.35542 | 22.27480 | 37205 ft | 429 kts | 359° |
| 2026-04-26 16:29 | 50.41477 | 22.28562 | 37196 ft | 429 kts | 359° |
| 2026-04-26 16:29 | 50.47416 | 22.29644 | 37191 ft | 430 kts | 359° |
| 2026-04-26 16:30 | 50.53351 | 22.30724 | 37196 ft | 429 kts | 359° |
| 2026-04-26 16:30 | 50.59288 | 22.31811 | 37180 ft | 430 kts | 359° |
| 2026-04-26 16:31 | 50.65223 | 22.32904 | 37186 ft | 430 kts | 359° |
| 2026-04-26 16:31 | 50.71161 | 22.34002 | 37192 ft | 430 kts | 359° |
| 2026-04-26 16:32 | 50.77103 | 22.35096 | 37191 ft | 430 kts | 359° |
| 2026-04-26 16:32 | 50.83046 | 22.36192 | 37184 ft | 430 kts | 359° |
| 2026-04-26 16:33 | 50.88997 | 22.37301 | 37185 ft | 431 kts | 359° |
| 2026-04-26 16:33 | 50.94952 | 22.38411 | 37185 ft | 431 kts | 359° |
| 2026-04-26 16:34 | 51.00916 | 22.39519 | 37181 ft | 432 kts | 359° |
| 2026-04-26 16:34 | 51.06891 | 22.40636 | 37179 ft | 433 kts | 359° |
| 2026-04-26 16:35 | 51.12876 | 22.41761 | 37181 ft | 433 kts | 359° |
| 2026-04-26 16:35 | 51.18867 | 22.42898 | 37174 ft | 434 kts | 359° |
| 2026-04-26 16:36 | 51.24863 | 22.44022 | 37184 ft | 434 kts | 359° |
| 2026-04-26 16:36 | 51.30865 | 22.45147 | 37175 ft | 435 kts | 359° |
| 2026-04-26 16:37 | 51.36877 | 22.46286 | 37192 ft | 435 kts | 359° |
| 2026-04-26 16:37 | 51.42888 | 22.47429 | 37190 ft | 435 kts | 359° |
| 2026-04-26 16:38 | 51.48905 | 22.48573 | 37190 ft | 436 kts | 360° |
| 2026-04-26 16:38 | 51.54926 | 22.49724 | 37185 ft | 436 kts | 360° |
| 2026-04-26 16:39 | 51.60948 | 22.50879 | 37181 ft | 436 kts | 360° |
| 2026-04-26 16:39 | 51.66975 | 22.52028 | 37182 ft | 436 kts | 360° |
| 2026-04-26 16:40 | 51.73006 | 22.53193 | 37182 ft | 437 kts | 360° |
| 2026-04-26 16:40 | 51.79042 | 22.54364 | 37179 ft | 437 kts | 360° |
| 2026-04-26 16:41 | 51.85082 | 22.55547 | 37179 ft | 437 kts | 360° |
| 2026-04-26 16:41 | 51.91124 | 22.56716 | 37178 ft | 438 kts | 360° |
| 2026-04-26 16:42 | 51.97179 | 22.57877 | 37176 ft | 438 kts | 360° |
| 2026-04-26 16:42 | 52.03238 | 22.59055 | 37177 ft | 439 kts | 360° |
| 2026-04-26 16:43 | 52.09300 | 22.60246 | 37179 ft | 439 kts | 360° |
| 2026-04-26 16:43 | 52.15378 | 22.61440 | 37177 ft | 440 kts | 360° |
| 2026-04-26 16:44 | 52.21460 | 22.62644 | 37179 ft | 441 kts | 360° |
| 2026-04-26 16:44 | 52.27546 | 22.63848 | 37178 ft | 441 kts | 360° |
| 2026-04-26 16:45 | 52.33646 | 22.65046 | 37175 ft | 442 kts | 360° |
| 2026-04-26 16:45 | 52.39749 | 22.66249 | 37175 ft | 442 kts | 0° |
| 2026-04-26 16:46 | 52.45867 | 22.67472 | 37174 ft | 443 kts | 0° |
| 2026-04-26 16:46 | 52.51984 | 22.68705 | 37168 ft | 443 kts | 360° |
| 2026-04-26 16:47 | 52.58113 | 22.69928 | 37170 ft | 444 kts | 360° |
| 2026-04-26 16:47 | 52.64248 | 22.71153 | 37161 ft | 445 kts | 0° |
| 2026-04-26 16:48 | 52.70392 | 22.72390 | 37173 ft | 445 kts | 360° |
| 2026-04-26 16:48 | 52.76550 | 22.73624 | 37163 ft | 446 kts | 0° |
| 2026-04-26 16:49 | 52.82708 | 22.74866 | 37163 ft | 446 kts | 0° |
| 2026-04-26 16:49 | 52.88876 | 22.76121 | 37168 ft | 447 kts | 0° |
| 2026-04-26 16:50 | 52.95055 | 22.77379 | 37159 ft | 448 kts | 0° |
| 2026-04-26 16:50 | 53.01239 | 22.78644 | 37171 ft | 448 kts | 360° |
| 2026-04-26 16:51 | 53.07437 | 22.79916 | 37166 ft | 449 kts | 360° |
| 2026-04-26 16:51 | 53.13642 | 22.81186 | 37163 ft | 450 kts | 360° |
| 2026-04-26 16:52 | 53.18804 | 22.82245 | 37164 ft | 450 kts | 360° |
| 2026-04-26 16:52 | 53.26084 | 22.83746 | 37159 ft | 451 kts | 360° |
| 2026-04-26 16:53 | 53.32317 | 22.85036 | 37159 ft | 452 kts | 360° |
| 2026-04-26 16:53 | 53.38563 | 22.86337 | 37159 ft | 453 kts | 360° |
| 2026-04-26 16:54 | 53.44821 | 22.87645 | 37151 ft | 453 kts | 360° |
| 2026-04-26 16:54 | 53.51081 | 22.88945 | 37145 ft | 454 kts | 360° |
| 2026-04-26 16:55 | 53.57360 | 22.90263 | 37146 ft | 455 kts | 360° |
| 2026-04-26 16:55 | 53.63648 | 22.91585 | 37149 ft | 456 kts | 360° |
| 2026-04-26 16:56 | 53.73092 | 22.93579 | 37143 ft | 457 kts | 359° |
| 2026-04-26 16:57 | 53.79410 | 22.94914 | 37138 ft | 458 kts | 359° |
| 2026-04-26 16:57 | 53.88900 | 22.96925 | 37132 ft | 459 kts | 359° |
| 2026-04-26 16:58 | 53.94168 | 22.98050 | 37135 ft | 459 kts | 359° |
| 2026-04-26 16:59 | 54.04770 | 23.00330 | 37127 ft | 461 kts | 359° |
| 2026-04-26 17:00 | 54.17524 | 23.03082 | 37124 ft | 463 kts | 359° |
| 2026-04-26 17:00 | 54.27115 | 23.05151 | 37123 ft | 464 kts | 359° |
| 2026-04-26 17:01 | 54.33526 | 23.06619 | 37121 ft | 466 kts | 1° |
| 2026-04-26 17:01 | 54.39939 | 23.08535 | 37126 ft | 469 kts | 3° |
| 2026-04-26 17:02 | 54.46361 | 23.10637 | 37114 ft | 470 kts | 3° |
| 2026-04-26 17:02 | 54.52803 | 23.12665 | 37106 ft | 471 kts | 2° |
| 2026-04-26 17:03 | 54.59252 | 23.14623 | 37104 ft | 471 kts | 2° |
| 2026-04-26 17:03 | 54.65703 | 23.16575 | 37052 ft | 471 kts | 2° |
| 2026-04-26 17:04 | 54.72165 | 23.18545 | 37067 ft | 472 kts | 2° |
| 2026-04-26 17:04 | 54.78628 | 23.20541 | 37061 ft | 472 kts | 2° |
| 2026-04-26 17:05 | 54.85089 | 23.22555 | 37057 ft | 472 kts | 2° |
| 2026-04-26 17:05 | 54.91528 | 23.24554 | 37064 ft | 472 kts | 2° |
| 2026-04-26 17:06 | 54.98013 | 23.26566 | 37072 ft | 472 kts | 2° |
| 2026-04-26 17:06 | 55.04486 | 23.28590 | 37077 ft | 473 kts | 2° |
| 2026-04-26 17:07 | 55.10963 | 23.30620 | 37076 ft | 473 kts | 2° |
| 2026-04-26 17:07 | 55.17439 | 23.32659 | 37072 ft | 473 kts | 3° |
| 2026-04-26 17:08 | 55.22816 | 23.34360 | 37065 ft | 473 kts | 2° |
| 2026-04-26 17:08 | 55.29291 | 23.36404 | 37068 ft | 473 kts | 3° |
| 2026-04-26 17:09 | 55.34672 | 23.38112 | 37068 ft | 473 kts | 3° |
| 2026-04-26 17:09 | 55.42233 | 23.40516 | 37063 ft | 472 kts | 3° |
| 2026-04-26 17:10 | 55.48694 | 23.42662 | 37060 ft | 473 kts | 4° |
| 2026-04-26 17:10 | 55.55143 | 23.45039 | 37056 ft | 473 kts | 5° |
| 2026-04-26 17:11 | 55.61577 | 23.47461 | 37061 ft | 473 kts | 5° |
| 2026-04-26 17:11 | 55.68017 | 23.49836 | 37061 ft | 472 kts | 5° |
| 2026-04-26 17:12 | 55.77669 | 23.53373 | 37065 ft | 472 kts | 5° |
| 2026-04-26 17:13 | 55.87305 | 23.56913 | 37066 ft | 471 kts | 5° |
| 2026-04-26 17:14 | 55.96921 | 23.60478 | 37062 ft | 470 kts | 6° |
| 2026-04-26 17:14 | 56.06459 | 23.64030 | 37053 ft | 470 kts | 6° |
| 2026-04-26 17:15 | 56.16073 | 23.67627 | 37042 ft | 469 kts | 6° |
| 2026-04-26 17:16 | 56.22462 | 23.70038 | 37036 ft | 469 kts | 6° |
| 2026-04-26 17:16 | 56.28847 | 23.72447 | 37030 ft | 469 kts | 6° |
| 2026-04-26 17:17 | 56.35222 | 23.74864 | 37025 ft | 468 kts | 6° |
| 2026-04-26 17:17 | 56.41604 | 23.77215 | 37020 ft | 468 kts | 6° |
| 2026-04-26 17:18 | 56.48001 | 23.79370 | 37020 ft | 467 kts | 5° |
| 2026-04-26 17:18 | 56.54375 | 23.81489 | 37023 ft | 467 kts | 5° |
| 2026-04-26 17:19 | 56.63971 | 23.84785 | 37021 ft | 467 kts | 6° |
| 2026-04-26 17:19 | 56.70351 | 23.87021 | 37011 ft | 467 kts | 6° |
| 2026-04-26 17:20 | 56.75586 | 23.88851 | 37612 ft | 443 kts | 7° |
| 2026-04-26 17:20 | 56.79596 | 23.90269 | 36799 ft | 433 kts | 7° |
| 2026-04-26 17:20 | 56.82515 | 23.91300 | 36865 ft | 418 kts | 7° |
| 2026-04-26 17:21 | 56.88165 | 23.93255 | 36972 ft | 423 kts | 7° |
| 2026-04-26 17:21 | 56.94050 | 23.95279 | 36979 ft | 428 kts | 7° |
| 2026-04-26 17:22 | 56.99911 | 23.97329 | 36972 ft | 429 kts | 7° |
| 2026-04-26 17:22 | 57.05774 | 23.99428 | 36977 ft | 430 kts | 7° |
| 2026-04-26 17:23 | 57.11643 | 24.01531 | 36977 ft | 430 kts | 7° |
| 2026-04-26 17:23 | 57.17531 | 24.03625 | 36980 ft | 431 kts | 7° |
| 2026-04-26 17:24 | 57.23427 | 24.05720 | 36982 ft | 432 kts | 7° |
| 2026-04-26 17:24 | 57.29316 | 24.07831 | 36980 ft | 433 kts | 7° |
| 2026-04-26 17:25 | 57.35234 | 24.09949 | 36982 ft | 433 kts | 7° |
| 2026-04-26 17:25 | 57.41161 | 24.12083 | 36985 ft | 434 kts | 7° |
| 2026-04-26 17:26 | 57.47090 | 24.14217 | 36978 ft | 434 kts | 7° |
| 2026-04-26 17:26 | 57.53029 | 24.16377 | 36977 ft | 435 kts | 7° |
| 2026-04-26 17:27 | 57.58966 | 24.18558 | 36975 ft | 435 kts | 7° |
| 2026-04-26 17:27 | 57.64914 | 24.20740 | 36971 ft | 436 kts | 7° |
| 2026-04-26 17:28 | 57.70864 | 24.22916 | 36972 ft | 436 kts | 7° |
| 2026-04-26 17:28 | 57.76825 | 24.25084 | 36968 ft | 436 kts | 7° |
| 2026-04-26 17:29 | 57.81825 | 24.26904 | 36961 ft | 437 kts | 7° |
| 2026-04-26 17:29 | 57.88752 | 24.29472 | 36960 ft | 437 kts | 8° |
| 2026-04-26 17:30 | 57.94721 | 24.31640 | 36963 ft | 436 kts | 7° |
| 2026-04-26 17:30 | 58.00677 | 24.33643 | 36959 ft | 434 kts | 7° |
| 2026-04-26 17:31 | 58.06620 | 24.35652 | 36953 ft | 433 kts | 7° |
| 2026-04-26 17:31 | 58.12551 | 24.37693 | 36945 ft | 433 kts | 7° |
| 2026-04-26 17:32 | 58.18477 | 24.39742 | 36937 ft | 433 kts | 7° |
| 2026-04-26 17:32 | 58.24402 | 24.41809 | 36941 ft | 433 kts | 7° |
| 2026-04-26 17:33 | 58.30328 | 24.43881 | 36928 ft | 433 kts | 7° |
| 2026-04-26 17:34 | 58.39266 | 24.47033 | 36924 ft | 434 kts | 7° |
| 2026-04-26 17:34 | 58.45199 | 24.49125 | 36918 ft | 434 kts | 7° |
| 2026-04-26 17:35 | 58.51145 | 24.51219 | 36919 ft | 434 kts | 7° |
| 2026-04-26 17:35 | 58.57089 | 24.53320 | 36916 ft | 435 kts | 7° |
| 2026-04-26 17:36 | 58.63040 | 24.55441 | 36914 ft | 435 kts | 8° |
| 2026-04-26 17:36 | 58.68996 | 24.57572 | 36908 ft | 436 kts | 8° |
| 2026-04-26 17:37 | 58.74954 | 24.59706 | 36903 ft | 436 kts | 8° |
| 2026-04-26 17:37 | 58.80921 | 24.61839 | 36901 ft | 436 kts | 8° |
| 2026-04-26 17:38 | 58.89850 | 24.65047 | 36899 ft | 434 kts | 8° |
| 2026-04-26 17:38 | 58.95774 | 24.67189 | 36892 ft | 433 kts | 8° |
| 2026-04-26 17:39 | 59.01693 | 24.69332 | 36892 ft | 432 kts | 8° |
| 2026-04-26 17:39 | 59.07599 | 24.71483 | 36823 ft | 432 kts | 8° |
| 2026-04-26 17:40 | 59.10550 | 24.72562 | 36296 ft | 431 kts | 8° |
| 2026-04-26 17:40 | 59.11505 | 24.72912 | 36117 ft | 431 kts | 8° |
| 2026-04-26 17:40 | 59.16428 | 24.74722 | 35057 ft | 431 kts | 8° |
| 2026-04-26 17:40 | 59.19377 | 24.75802 | 34342 ft | 431 kts | 6° |
| 2026-04-26 17:41 | 59.22311 | 24.76205 | 33180 ft | 418 kts | 356° |
| 2026-04-26 17:41 | 59.25212 | 24.76017 | 31481 ft | 417 kts | 355° |
| 2026-04-26 17:41 | 59.28097 | 24.75755 | 29799 ft | 414 kts | 355° |
| 2026-04-26 17:41 | 59.30965 | 24.75460 | 27739 ft | 411 kts | 355° |
| 2026-04-26 17:42 | 59.33818 | 24.75152 | 25798 ft | 409 kts | 355° |
| 2026-04-26 17:42 | 59.36646 | 24.74852 | 24021 ft | 406 kts | 355° |
| 2026-04-26 17:42 | 59.39446 | 24.74572 | 22086 ft | 400 kts | 356° |
| 2026-04-26 17:42 | 59.42209 | 24.74313 | 20166 ft | 395 kts | 356° |
| 2026-04-26 17:43 | 59.44935 | 24.74071 | 18383 ft | 389 kts | 356° |
| 2026-04-26 17:43 | 59.47624 | 24.73838 | 16492 ft | 387 kts | 356° |
| 2026-04-26 17:43 | 59.50299 | 24.73606 | 14883 ft | 381 kts | 356° |
| 2026-04-26 17:43 | 59.52936 | 24.73369 | 13818 ft | 377 kts | 356° |
| 2026-04-26 17:44 | 59.55515 | 24.73130 | 13332 ft | 367 kts | 356° |
| 2026-04-26 17:44 | 59.58036 | 24.72893 | 12708 ft | 360 kts | 356° |
| 2026-04-26 17:44 | 59.60515 | 24.72655 | 12105 ft | 352 kts | 356° |
| 2026-04-26 17:44 | 59.62907 | 24.72430 | 11533 ft | 345 kts | 356° |
| 2026-04-26 17:45 | 59.65276 | 24.72213 | 11064 ft | 333 kts | 356° |
| 2026-04-26 17:45 | 59.67494 | 24.72015 | 10925 ft | 307 kts | 356° |
| 2026-04-26 17:45 | 59.69572 | 24.71827 | 10788 ft | 291 kts | 356° |
| 2026-04-26 17:45 | 59.71537 | 24.71646 | 10665 ft | 275 kts | 356° |
| 2026-04-26 17:46 | 59.73398 | 24.71470 | 10532 ft | 263 kts | 356° |
| 2026-04-26 17:46 | 59.75203 | 24.71297 | 10289 ft | 256 kts | 356° |
| 2026-04-26 17:46 | 59.76958 | 24.71127 | 10038 ft | 250 kts | 356° |
| 2026-04-26 17:46 | 59.78684 | 24.70962 | 9864 ft | 247 kts | 356° |
| 2026-04-26 17:47 | 59.80366 | 24.70804 | 9738 ft | 247 kts | 356° |
| 2026-04-26 17:47 | 59.80983 | 24.70747 | 9681 ft | 247 kts | 356° |
| 2026-04-26 17:47 | 59.83829 | 24.70486 | 9458 ft | 246 kts | 356° |
| 2026-04-26 17:47 | 59.84986 | 24.70380 | 9363 ft | 246 kts | 356° |
| 2026-04-26 17:48 | 59.86693 | 24.70218 | 9221 ft | 245 kts | 356° |
| 2026-04-26 17:48 | 59.88396 | 24.70055 | 9083 ft | 245 kts | 356° |
| 2026-04-26 17:48 | 59.90097 | 24.69888 | 8947 ft | 245 kts | 356° |
| 2026-04-26 17:48 | 59.91803 | 24.69723 | 8617 ft | 246 kts | 356° |
| 2026-04-26 17:49 | 59.93509 | 24.69562 | 8179 ft | 246 kts | 356° |
| 2026-04-26 17:49 | 59.95203 | 24.69404 | 7729 ft | 241 kts | 356° |
| 2026-04-26 17:49 | 59.96875 | 24.69250 | 7295 ft | 241 kts | 356° |
| 2026-04-26 17:49 | 59.98554 | 24.69096 | 6843 ft | 242 kts | 355° |
| 2026-04-26 17:50 | 60.00221 | 24.68942 | 6416 ft | 238 kts | 355° |
| 2026-04-26 17:50 | 60.01869 | 24.68787 | 5962 ft | 237 kts | 355° |
| 2026-04-26 17:50 | 60.03515 | 24.68632 | 5511 ft | 238 kts | 355° |
| 2026-04-26 17:50 | 60.05158 | 24.68477 | 5071 ft | 234 kts | 355° |
| 2026-04-26 17:51 | 60.06785 | 24.68320 | 4623 ft | 234 kts | 356° |
| 2026-04-26 17:51 | 60.08408 | 24.68166 | 4194 ft | 234 kts | 356° |
| 2026-04-26 17:51 | 60.10012 | 24.68013 | 3886 ft | 230 kts | 355° |
| 2026-04-26 17:51 | 60.11562 | 24.67866 | 3815 ft | 217 kts | 355° |
| 2026-04-26 17:52 | 60.13032 | 24.67727 | 3737 ft | 205 kts | 355° |
| 2026-04-26 17:52 | 60.14404 | 24.67598 | 3659 ft | 190 kts | 355° |
| 2026-04-26 17:52 | 60.15678 | 24.67478 | 3569 ft | 177 kts | 355° |
| 2026-04-26 17:52 | 60.16859 | 24.67368 | 3489 ft | 164 kts | 355° |
| 2026-04-26 17:53 | 60.17995 | 24.67256 | 3418 ft | 159 kts | 355° |
| 2026-04-26 17:53 | 60.19085 | 24.67148 | 3352 ft | 159 kts | 355° |
| 2026-04-26 17:53 | 60.20183 | 24.67330 | 3278 ft | 160 kts | 12° |
| 2026-04-26 17:54 | 60.22001 | 24.70080 | 2946 ft | 169 kts | 39° |
| 2026-04-26 17:54 | 60.22785 | 24.71791 | 2719 ft | 162 kts | 39° |
| 2026-04-26 17:54 | 60.23531 | 24.73418 | 2497 ft | 155 kts | 39° |
| 2026-04-26 17:54 | 60.24250 | 24.74982 | 2275 ft | 150 kts | 39° |
| 2026-04-26 17:55 | 60.24953 | 24.76514 | 2075 ft | 149 kts | 39° |
| 2026-04-26 17:55 | 60.25665 | 24.78064 | 1863 ft | 149 kts | 39° |
| 2026-04-26 17:55 | 60.26348 | 24.79559 | 1669 ft | 143 kts | 38° |
| 2026-04-26 17:55 | 60.26988 | 24.80964 | 1472 ft | 132 kts | 38° |
| 2026-04-26 17:56 | 60.27602 | 24.82302 | 1244 ft | 128 kts | 39° |
| 2026-04-26 17:56 | 60.28828 | 24.84903 | 888 ft | 129 kts | 44° |
| 2026-04-26 17:57 | 60.30049 | 24.87660 | 553 ft | 132 kts | 39° |
| 2026-04-26 17:57 | 60.30665 | 24.89014 | 367 ft | 134 kts | 38° |
| 2026-04-26 17:57 | 60.31299 | 24.90401 | 201 ft | 135 kts | 40° |
| 2026-04-26 17:57 | 60.31885 | 24.91676 | 149 ft | 107 kts | 45° |
| 2026-04-26 17:58 | 60.32837 | 24.93780 | 182 ft | 54 kts | 47° |
| 2026-04-26 17:59 | 60.33043 | 24.94596 | 184 ft | 18 kts | 100° |
| 2026-04-26 17:59 | 60.32975 | 24.94762 | 178 ft | 11 kts | 136° |
| 2026-04-26 17:59 | 60.32989 | 24.94910 | 177 ft | 14 kts | 47° |
| 2026-04-26 17:59 | 60.33059 | 24.95063 | 177 ft | 16 kts | 47° |
| 2026-04-26 18:00 | 60.33139 | 24.95237 | 178 ft | 18 kts | 48° |
| 2026-04-26 18:00 | 60.33209 | 24.95439 | 182 ft | 17 kts | 81° |
| 2026-04-26 18:00 | 60.33140 | 24.95644 | 180 ft | 20 kts | 137° |
| 2026-04-26 18:00 | 60.33026 | 24.95823 | 181 ft | 21 kts | 149° |
| 2026-04-26 18:01 | 60.32882 | 24.95991 | 175 ft | 26 kts | 149° |
| 2026-04-26 18:01 | 60.32720 | 24.96181 | 172 ft | 27 kts | 150° |
| 2026-04-26 18:01 | 60.32551 | 24.96380 | 174 ft | 29 kts | 149° |
| 2026-04-26 18:01 | 60.32382 | 24.96576 | 174 ft | 21 kts | 150° |
| 2026-04-26 18:02 | 60.32237 | 24.96744 | 166 ft | 23 kts | 149° |
| 2026-04-26 18:02 | 60.32142 | 24.96856 | 167 ft | 24 kts | 150° |
| 2026-04-26 18:02 | 60.31974 | 24.97041 | 166 ft | 21 kts | 153° |
| 2026-04-26 18:02 | 60.31844 | 24.97174 | 166 ft | 20 kts | 153° |
| 2026-04-26 18:03 | 60.31762 | 24.97259 | 166 ft | 6 kts | 153° |
| 2026-04-26 18:03 | 60.31730 | 24.97234 | 167 ft | 5 kts | 234° |
| 2026-04-26 18:03 | 60.31716 | 24.97189 | 167 ft | 3 kts | 241° |
| 2026-04-26 18:03 | 60.31711 | 24.97168 | 167 ft | 1 kts | 243° |
| 2026-04-26 18:04 | 60.31710 | 24.97163 | 167 ft | 0 kts | 243° |